createdAt,value
2018-07-21T00:01:46.152Z,13.43
2018-07-21T00:04:15.503Z,12.77
2018-07-21T00:06:45.447Z,13.00
2018-07-21T00:09:15.448Z,13.27
2018-07-21T00:11:44.873Z,14.77
2018-07-21T00:14:20.531Z,14.07
2018-07-21T00:16:50.169Z,12.80
2018-07-21T00:19:19.521Z,13.87
2018-07-21T00:21:48.987Z,13.10
2018-07-21T00:24:18.319Z,12.87
2018-07-21T00:26:50.011Z,14.03
2018-07-21T00:29:20.140Z,15.87
2018-07-21T00:31:49.993Z,13.90
2018-07-21T00:34:19.287Z,13.73
2018-07-21T00:36:48.665Z,12.73
2018-07-21T00:39:18.118Z,13.50
2018-07-21T00:41:47.534Z,14.57
2018-07-21T00:44:16.872Z,13.60
2018-07-21T00:46:46.357Z,13.30
2018-07-21T00:49:15.808Z,13.47
2018-07-21T00:51:46.254Z,13.67
2018-07-21T00:54:15.632Z,13.57
2018-07-21T00:56:44.992Z,14.83
2018-07-21T00:59:14.456Z,13.93
2018-07-21T01:01:43.883Z,15.27
2018-07-21T01:04:13.283Z,15.33
2018-07-21T01:06:42.580Z,14.90
2018-07-21T01:09:12.042Z,15.37
2018-07-21T01:11:41.343Z,14.97
2018-07-21T01:14:10.607Z,15.93
2018-07-21T01:16:39.833Z,13.80
2018-07-21T01:19:09.104Z,14.30
2018-07-21T01:21:38.511Z,17.00
2018-07-21T01:24:07.852Z,14.40
2018-07-21T01:26:37.150Z,14.23
2018-07-21T01:29:06.660Z,16.27
2018-07-21T01:31:36.050Z,13.90
2018-07-21T01:34:05.305Z,15.17
2018-07-21T01:36:34.648Z,17.90
2018-07-21T01:39:07.788Z,18.40
2018-07-21T01:41:37.210Z,15.43
2018-07-21T01:44:06.789Z,15.47
2018-07-21T01:46:36.265Z,14.90
2018-07-21T01:49:05.505Z,15.70
2018-07-21T01:51:34.965Z,15.47
2018-07-21T01:54:04.445Z,16.07
2018-07-21T01:56:33.998Z,14.87
2018-07-21T01:59:03.420Z,15.67
2018-07-21T02:01:34.801Z,16.07
2018-07-21T02:04:07.570Z,14.90
2018-07-21T02:06:37.472Z,15.33
2018-07-21T02:09:08.524Z,15.53
2018-07-21T02:11:39.380Z,16.10
2018-07-21T02:14:09.060Z,17.37
2018-07-21T02:16:38.496Z,17.10
2018-07-21T02:19:08.088Z,16.80
2018-07-21T02:21:37.608Z,17.50
2018-07-21T02:24:07.028Z,14.90
2018-07-21T02:26:39.186Z,16.80
2018-07-21T02:32:06.829Z,15.30
2018-07-21T02:34:36.180Z,16.23
2018-07-21T02:37:05.428Z,14.87
2018-07-21T02:39:34.810Z,16.33
2018-07-21T02:42:09.162Z,16.00
2018-07-21T02:44:39.511Z,16.83
2018-07-21T02:47:09.135Z,16.70
2018-07-21T02:49:38.723Z,16.10
2018-07-21T02:52:08.361Z,15.80
2018-07-21T02:54:37.708Z,16.27
2018-07-21T02:57:07.114Z,16.70
2018-07-21T02:59:36.473Z,15.47
2018-07-21T03:02:06.218Z,17.33
2018-07-21T03:04:35.574Z,15.23
2018-07-21T03:07:05.038Z,15.40
2018-07-21T03:09:34.894Z,16.33
2018-07-21T03:12:04.313Z,16.23
2018-07-21T03:14:33.949Z,15.53
2018-07-21T03:17:06.683Z,16.73
2018-07-21T03:19:36.901Z,17.20
2018-07-21T03:22:06.392Z,16.77
2018-07-21T03:24:35.713Z,15.47
2018-07-21T03:27:05.016Z,15.27
2018-07-21T03:29:34.640Z,17.77
2018-07-21T03:34:45.544Z,16.03
2018-07-21T03:37:15.068Z,16.30
2018-07-21T03:39:44.437Z,17.20
2018-07-21T03:42:13.973Z,15.23
2018-07-21T03:44:43.442Z,17.87
2018-07-21T03:47:12.794Z,16.60
2018-07-21T03:49:42.396Z,16.50
2018-07-21T03:52:11.790Z,15.97
2018-07-21T03:54:41.364Z,19.83
2018-07-21T03:57:10.733Z,17.30
2018-07-21T03:59:40.144Z,15.90
2018-07-21T04:02:09.576Z,16.33
2018-07-21T04:04:38.876Z,19.13
2018-07-21T04:07:08.349Z,16.83
2018-07-21T04:09:37.947Z,16.80
2018-07-21T04:12:07.642Z,16.73
2018-07-21T04:14:37.105Z,15.43
2018-07-21T04:17:10.473Z,15.47
2018-07-21T04:19:39.814Z,16.63
2018-07-21T04:22:09.396Z,16.00
2018-07-21T04:24:40.761Z,16.50
2018-07-21T04:27:10.266Z,17.47
2018-07-21T04:29:39.684Z,17.03
2018-07-21T04:32:09.258Z,16.80
2018-07-21T04:34:38.564Z,15.67
2018-07-21T04:37:07.960Z,17.20
2018-07-21T04:39:37.720Z,16.43
2018-07-21T04:42:07.353Z,17.03
2018-07-21T04:44:36.697Z,17.50
2018-07-21T04:47:06.112Z,17.10
2018-07-21T04:49:35.504Z,17.43
2018-07-21T04:52:05.112Z,16.60
2018-07-21T04:54:34.574Z,15.40
2018-07-21T04:57:04.163Z,17.10
2018-07-21T04:59:33.682Z,16.10
2018-07-21T05:02:03.379Z,15.73
2018-07-21T05:04:32.969Z,16.33
2018-07-21T05:07:02.475Z,17.03
2018-07-21T05:09:32.096Z,17.90
2018-07-21T05:12:01.451Z,17.50
2018-07-21T05:14:39.415Z,16.17
2018-07-21T05:17:15.713Z,17.50
2018-07-21T05:19:52.166Z,18.10
2018-07-21T05:22:27.885Z,17.17
2018-07-21T05:25:06.372Z,17.37
2018-07-21T05:27:35.862Z,16.83
2018-07-21T05:30:17.499Z,15.83
2018-07-21T05:32:50.835Z,14.77
2018-07-21T05:35:24.608Z,15.67
2018-07-21T05:37:54.578Z,15.93
2018-07-21T05:40:24.036Z,15.30
2018-07-21T05:42:53.485Z,16.17
2018-07-21T05:45:23.744Z,16.17
2018-07-21T05:47:53.253Z,16.27
2018-07-21T05:50:23.070Z,14.90
2018-07-21T05:52:52.426Z,15.07
2018-07-21T05:55:24.069Z,14.83
2018-07-21T05:57:53.587Z,15.17
2018-07-21T06:00:39.551Z,16.70
2018-07-21T06:03:09.221Z,14.93
2018-07-21T06:05:43.001Z,15.90
2018-07-21T06:08:12.523Z,14.20
2018-07-21T06:10:42.253Z,15.17
2018-07-21T06:13:11.964Z,15.47
2018-07-21T06:15:41.893Z,14.90
2018-07-21T06:18:11.541Z,13.93
2018-07-21T06:20:41.517Z,15.00
2018-07-21T06:23:10.912Z,14.40
2018-07-21T06:25:40.345Z,13.80
2018-07-21T06:28:09.994Z,14.53
2018-07-21T06:30:39.763Z,15.00
2018-07-21T06:33:18.694Z,13.43
2018-07-21T06:35:48.245Z,13.97
2018-07-21T06:38:18.163Z,12.40
2018-07-21T06:40:47.621Z,13.60
2018-07-21T06:43:16.983Z,12.10
2018-07-21T06:45:46.184Z,13.50
2018-07-21T06:48:16.400Z,12.60
2018-07-21T06:50:45.988Z,11.53
2018-07-21T06:53:20.662Z,13.73
2018-07-21T06:55:50.060Z,12.70
2018-07-21T06:58:25.300Z,11.90
2018-07-21T07:00:56.363Z,10.70
2018-07-21T07:03:25.719Z,11.43
2018-07-21T07:05:55.273Z,12.60
2018-07-21T07:08:24.856Z,11.90
2018-07-21T07:10:54.709Z,12.40
2018-07-21T07:13:27.400Z,11.23
2018-07-21T07:16:02.612Z,11.73
2018-07-21T07:18:48.105Z,11.23
2018-07-21T07:21:53.282Z,9.93
2018-07-21T07:24:39.701Z,10.70
2018-07-21T07:27:21.137Z,11.50
2018-07-21T07:29:56.598Z,10.70
2018-07-21T07:32:43.592Z,10.30
2018-07-21T07:35:22.369Z,11.07
2018-07-21T07:38:02.574Z,10.00
2018-07-21T07:40:47.262Z,10.57
2018-07-21T07:43:34.734Z,9.70
2018-07-21T07:46:22.452Z,9.45
2018-07-21T07:49:09.554Z,10.27
2018-07-21T07:52:07.789Z,10.07
2018-07-21T07:55:11.183Z,10.67
